createdAt,value
2018-11-22T00:00:20.298Z,24.75
2018-11-22T00:03:00.800Z,23.70
2018-11-22T00:05:41.028Z,24.18
2018-11-22T00:08:21.100Z,28.50
2018-11-22T00:11:01.783Z,22.42
2018-11-22T00:13:41.944Z,29.00
2018-11-22T00:16:22.490Z,24.25
2018-11-22T00:18:50.743Z,21.33
2018-11-22T00:21:38.440Z,24.15
2018-11-22T00:24:26.047Z,24.63
2018-11-22T00:26:54.221Z,23.32
2018-11-22T00:29:41.825Z,27.90
2018-11-22T00:32:22.097Z,26.12
2018-11-22T00:35:02.300Z,28.47
2018-11-22T00:37:42.624Z,24.23
2018-11-22T00:40:24.752Z,24.55
2018-11-22T00:43:04.635Z,26.25
2018-11-22T00:45:45.252Z,23.75
2018-11-22T00:48:24.956Z,25.25
2018-11-22T00:51:05.033Z,24.65
2018-11-22T00:53:45.299Z,24.57
2018-11-22T00:56:25.546Z,22.48
2018-11-22T00:59:05.840Z,25.75
2018-11-22T01:01:46.410Z,24.25
2018-11-22T01:04:26.607Z,25.30
2018-11-22T01:07:06.901Z,22.82
2018-11-22T01:09:47.020Z,21.27
2018-11-22T01:12:27.498Z,23.47
2018-11-22T01:15:08.311Z,25.90
2018-11-22T01:17:48.674Z,21.45
2018-11-22T01:20:29.093Z,25.48
2018-11-22T01:23:09.736Z,21.97
2018-11-22T01:25:50.041Z,24.72
2018-11-22T01:28:30.473Z,23.32
2018-11-22T01:31:10.920Z,23.98
2018-11-22T01:33:50.959Z,24.50
2018-11-22T01:36:31.061Z,23.12
2018-11-22T01:39:11.774Z,26.07
2018-11-22T01:41:51.693Z,22.90
2018-11-22T01:44:32.488Z,23.60
2018-11-22T01:47:12.771Z,21.68
2018-11-22T01:49:53.224Z,26.62
2018-11-22T01:52:33.075Z,24.40
2018-11-22T01:55:14.600Z,25.52
2018-11-22T01:57:55.013Z,25.85
2018-11-22T02:00:35.179Z,22.87
2018-11-22T02:03:15.834Z,21.62
2018-11-22T02:05:56.101Z,23.38
2018-11-22T02:08:36.395Z,24.57
2018-11-22T02:11:17.088Z,24.75
2018-11-22T02:13:57.912Z,25.27
2018-11-22T02:16:38.694Z,21.33
2018-11-22T02:19:18.708Z,24.47
2018-11-22T02:21:59.105Z,23.65
2018-11-22T02:24:39.393Z,22.37
2018-11-22T02:27:20.027Z,25.23
2018-11-22T02:29:48.559Z,24.70
2018-11-22T02:32:35.927Z,23.77
2018-11-22T02:35:22.807Z,26.02
2018-11-22T02:38:03.220Z,24.18
2018-11-22T02:40:43.743Z,25.17
2018-11-22T02:43:23.638Z,22.10
2018-11-22T02:46:04.142Z,24.23
2018-11-22T02:48:44.474Z,25.45
2018-11-22T02:51:12.954Z,19.42
2018-11-22T02:54:00.572Z,22.37
2018-11-22T02:56:41.416Z,23.77
2018-11-22T02:59:21.520Z,20.32
2018-11-22T03:02:02.323Z,21.12
2018-11-22T03:04:42.387Z,21.12
2018-11-22T03:07:22.943Z,19.90
2018-11-22T03:10:03.365Z,24.27
2018-11-22T03:12:43.854Z,22.25
2018-11-22T03:15:24.390Z,20.77
2018-11-22T03:18:04.419Z,18.27
2018-11-22T03:20:44.508Z,23.10
2018-11-22T03:23:25.407Z,21.17
2018-11-22T03:26:05.422Z,23.98
2018-11-22T03:28:45.735Z,22.98
2018-11-22T03:31:25.929Z,23.73
2018-11-22T03:34:06.540Z,26.73
2018-11-22T03:36:46.376Z,23.20
2018-11-22T03:39:26.797Z,26.85
2018-11-22T03:42:07.534Z,22.93
2018-11-22T03:44:47.467Z,20.70
2018-11-22T03:47:27.951Z,26.42
2018-11-22T03:50:09.016Z,27.87
2018-11-22T03:52:49.841Z,28.30
2018-11-22T03:55:30.064Z,25.35
2018-11-22T03:58:10.916Z,28.87
2018-11-22T04:00:51.519Z,27.20
2018-11-22T04:03:19.575Z,23.73
2018-11-22T04:06:06.632Z,22.95
2018-11-22T04:08:54.205Z,23.12
2018-11-22T04:11:35.096Z,22.82
2018-11-22T04:14:15.404Z,24.15
2018-11-22T04:16:55.747Z,24.75
2018-11-22T04:19:35.466Z,21.73
2018-11-22T04:22:16.066Z,22.80
2018-11-22T04:24:56.091Z,22.25
2018-11-22T04:27:36.444Z,19.32
2018-11-22T04:30:17.984Z,22.60
2018-11-22T04:32:58.357Z,23.50
2018-11-22T04:35:38.938Z,23.75
2018-11-22T04:38:19.442Z,25.45
2018-11-22T04:40:59.264Z,20.23
2018-11-22T04:43:39.640Z,27.20
2018-11-22T04:46:19.669Z,23.77
2018-11-22T04:48:59.905Z,25.37
2018-11-22T04:51:40.745Z,27.25
2018-11-22T04:54:20.842Z,26.15
2018-11-22T04:57:01.191Z,21.00
2018-11-22T04:59:41.229Z,20.85
2018-11-22T05:02:21.617Z,22.30
2018-11-22T05:05:01.970Z,22.02
2018-11-22T05:07:42.329Z,23.30
2018-11-22T05:10:24.057Z,26.48
2018-11-22T05:13:03.964Z,19.98
2018-11-22T05:15:44.716Z,23.55
2018-11-22T05:18:25.294Z,26.70
2018-11-22T05:21:05.626Z,23.18
2018-11-22T05:23:45.933Z,22.58
2018-11-22T05:26:26.358Z,25.23
2018-11-22T05:29:12.401Z,25.82
2018-11-22T05:31:46.853Z,19.48
2018-11-22T05:34:27.123Z,26.07
2018-11-22T05:37:07.493Z,22.90
2018-11-22T05:39:48.075Z,21.73
2018-11-22T05:42:28.307Z,19.98
2018-11-22T05:45:09.253Z,22.37
2018-11-22T05:47:49.093Z,24.07
2018-11-22T05:50:30.510Z,21.57
2018-11-22T05:53:11.196Z,22.48
2018-11-22T05:55:51.619Z,22.17
2018-11-22T05:58:31.536Z,23.98
2018-11-22T06:01:12.103Z,26.93
2018-11-22T06:03:52.011Z,26.30
2018-11-22T06:06:32.458Z,24.43
2018-11-22T06:09:12.814Z,22.17
2018-11-22T06:11:53.079Z,25.08
2018-11-22T06:14:33.396Z,22.10
2018-11-22T06:17:14.358Z,22.95
2018-11-22T06:19:54.405Z,22.58
2018-11-22T06:22:34.875Z,21.15
2018-11-22T06:25:16.523Z,24.25
2018-11-22T06:27:57.243Z,19.87
2018-11-22T06:30:37.893Z,27.15
2018-11-22T06:33:18.024Z,25.52
2018-11-22T06:35:58.218Z,23.98
2018-11-22T06:38:38.344Z,20.77
2018-11-22T06:41:18.676Z,24.45
2018-11-22T06:43:59.138Z,23.85
2018-11-22T06:46:39.244Z,27.30
2018-11-22T06:49:19.576Z,24.40
2018-11-22T06:51:59.737Z,25.23
2018-11-22T06:54:40.135Z,27.70
2018-11-22T06:57:20.458Z,26.45
2018-11-22T07:00:01.265Z,22.80
2018-11-22T07:02:41.261Z,29.85
2018-11-22T07:05:22.802Z,24.70
2018-11-22T07:08:02.787Z,23.22
2018-11-22T07:10:43.332Z,21.65
2018-11-22T07:13:23.964Z,26.17
2018-11-22T07:16:03.816Z,23.45
2018-11-22T12:16:47.662Z,22.07
2018-11-22T12:19:15.189Z,23.75
2018-11-22T12:21:42.778Z,26.68
2018-11-22T12:24:10.346Z,26.87
2018-11-22T12:26:37.847Z,28.65
2018-11-22T12:29:05.476Z,27.70
2018-11-22T12:31:32.968Z,26.73
2018-11-22T12:34:06.253Z,24.98
2018-11-22T12:36:39.410Z,26.40
2018-11-22T12:39:11.144Z,31.40
2018-11-22T12:41:38.625Z,27.30
2018-11-22T12:44:06.230Z,31.75
2018-11-22T12:46:33.717Z,27.35
2018-11-22T12:49:01.582Z,30.00
2018-11-22T12:51:29.123Z,29.02
2018-11-22T12:53:56.670Z,27.25
2018-11-22T12:56:24.203Z,28.45
2018-11-22T12:58:51.814Z,29.87
2018-11-22T13:01:19.285Z,26.60
2018-11-22T13:03:46.824Z,29.63
2018-11-22T13:06:14.440Z,27.55
2018-11-22T13:08:41.966Z,29.77
2018-11-22T13:11:09.512Z,29.67
2018-11-22T13:13:37.145Z,30.37
2018-11-22T13:16:04.688Z,30.75
2018-11-22T13:18:32.262Z,26.50
2018-11-22T13:20:59.869Z,33.05
2018-11-22T13:23:27.590Z,26.77
2018-11-22T13:25:55.128Z,31.82
2018-11-22T13:28:22.698Z,25.85
2018-11-22T13:30:50.233Z,27.40
2018-11-22T13:33:17.803Z,28.62
2018-11-22T13:35:45.326Z,30.77
2018-11-22T13:38:12.923Z,28.95
2018-11-22T13:40:40.427Z,23.12
2018-11-22T13:43:07.971Z,25.75
2018-11-22T13:45:35.468Z,27.30
2018-11-22T13:48:03.090Z,28.85
2018-11-22T13:50:31.946Z,31.75
2018-11-22T13:53:01.055Z,30.70
2018-11-22T13:55:28.607Z,26.02
2018-11-22T13:57:56.340Z,26.15
2018-11-22T14:00:25.243Z,26.60
2018-11-22T14:02:54.295Z,31.60
2018-11-22T14:05:21.930Z,28.02
2018-11-22T14:07:49.526Z,30.32
2018-11-22T14:10:18.175Z,27.58
2018-11-22T14:12:45.888Z,25.80
2018-11-22T14:15:17.849Z,26.75
2018-11-22T14:17:45.769Z,29.52
2018-11-22T14:20:15.642Z,30.37
2018-11-22T14:22:43.164Z,25.92
2018-11-22T14:25:12.113Z,26.80
2018-11-22T14:27:40.379Z,30.05
2018-11-22T14:30:09.866Z,24.32
2018-11-22T14:32:37.885Z,30.43
2018-11-22T14:35:07.076Z,24.32
2018-11-22T14:37:34.702Z,27.40
2018-11-22T14:40:03.070Z,28.85
2018-11-22T14:42:30.709Z,26.87
2018-11-22T14:44:58.219Z,30.17
2018-11-22T14:47:25.839Z,33.55
2018-11-22T14:49:53.365Z,29.77
2018-11-22T14:52:20.952Z,27.02
2018-11-22T14:54:48.494Z,25.80
2018-11-22T14:57:16.112Z,27.13
2018-11-22T14:59:43.643Z,28.90
2018-11-22T15:02:11.220Z,27.62
2018-11-22T15:04:38.708Z,25.65
2018-11-22T15:07:06.313Z,30.90
2018-11-22T15:09:33.808Z,24.43
2018-11-22T15:12:01.469Z,24.87
2018-11-22T15:14:29.071Z,23.95
2018-11-22T15:16:56.562Z,27.85
2018-11-22T15:19:24.340Z,28.32
2018-11-22T15:21:51.979Z,36.10
2018-11-22T15:24:19.661Z,25.80
2018-11-22T15:26:47.194Z,28.62
2018-11-22T15:29:14.790Z,28.90
2018-11-22T15:31:42.299Z,30.20
2018-11-22T15:34:09.994Z,31.10
2018-11-22T15:36:37.527Z,25.12
2018-11-22T15:39:07.035Z,26.50
2018-11-22T15:41:34.654Z,31.33
2018-11-22T15:44:02.605Z,28.25
2018-11-22T15:46:30.191Z,27.45
2018-11-22T15:48:57.720Z,31.05
2018-11-22T15:51:25.295Z,28.57
2018-11-22T15:53:52.795Z,31.10
2018-11-22T15:56:20.348Z,25.50
2018-11-22T15:58:47.930Z,27.87
2018-11-22T16:01:15.511Z,29.25
2018-11-22T16:03:43.011Z,30.68
2018-11-22T16:06:10.524Z,32.83
2018-11-22T16:08:38.086Z,29.40
2018-11-22T16:11:06.089Z,28.62
2018-11-22T16:13:33.700Z,28.70
2018-11-22T16:16:01.457Z,29.07
2018-11-22T16:18:29.075Z,42.80
2018-11-22T16:20:56.566Z,42.43
2018-11-22T16:23:24.104Z,35.63
2018-11-22T16:25:51.687Z,33.00
2018-11-22T16:28:19.152Z,36.42
2018-11-22T16:30:46.731Z,31.40
2018-11-22T16:33:14.255Z,32.17
2018-11-22T16:35:42.336Z,30.57
2018-11-22T16:38:09.431Z,32.60
2018-11-22T16:40:37.008Z,30.92
2018-11-22T16:43:04.676Z,32.60
2018-11-22T16:45:34.685Z,35.05
2018-11-22T16:48:04.883Z,37.93
2018-11-22T16:50:33.428Z,31.23
2018-11-22T16:53:00.992Z,36.20
2018-11-22T16:55:28.548Z,28.45
2018-11-22T16:57:57.493Z,33.58
2018-11-22T17:00:31.445Z,31.68
2018-11-22T17:03:00.969Z,37.53
2018-11-22T17:05:28.802Z,31.50
2018-11-22T17:07:56.613Z,33.18
2018-11-22T17:10:25.323Z,34.33
2018-11-22T17:12:54.317Z,32.95
2018-11-22T17:15:23.241Z,33.28
2018-11-22T17:17:51.273Z,32.20
2018-11-22T17:20:19.774Z,27.73
2018-11-22T17:22:48.122Z,33.33
2018-11-22T17:25:20.005Z,31.17
2018-11-22T17:27:49.637Z,30.23
2018-11-22T17:30:21.342Z,34.40
2018-11-22T17:32:48.941Z,29.65
2018-11-22T17:35:17.920Z,30.75
2018-11-22T17:37:45.491Z,32.55
2018-11-22T17:40:16.502Z,27.67
2018-11-22T17:42:44.164Z,28.27
2018-11-22T17:45:13.355Z,28.83
2018-11-22T17:47:41.051Z,28.70
2018-11-22T17:50:11.133Z,34.03
2018-11-22T17:52:38.807Z,33.48
2018-11-22T17:55:09.343Z,35.40
2018-11-22T17:57:36.956Z,30.05
2018-11-22T18:00:08.255Z,33.60
2018-11-22T18:02:35.895Z,32.15
2018-11-22T18:05:03.504Z,34.30
2018-11-22T18:07:31.112Z,37.35
2018-11-22T18:09:58.652Z,38.50
2018-11-22T18:12:26.343Z,37.65
2018-11-22T18:14:53.878Z,32.73
2018-11-22T18:17:55.049Z,41.88
2018-11-22T18:20:29.454Z,42.25
2018-11-22T18:22:58.051Z,35.23
2018-11-22T18:25:27.216Z,31.37
2018-11-22T18:27:54.907Z,40.25
2018-11-22T18:30:24.124Z,42.00
2018-11-22T18:32:53.101Z,43.25
2018-11-22T18:35:20.796Z,40.63
2018-11-22T18:37:48.461Z,38.08
2018-11-22T18:40:18.200Z,41.73
2018-11-22T18:42:46.695Z,37.98
2018-11-22T18:45:15.696Z,39.75
2018-11-22T18:47:44.357Z,41.18
2018-11-22T18:50:15.757Z,42.75
2018-11-22T18:52:42.220Z,55.12
2018-11-22T18:55:10.398Z,42.85
2018-11-22T18:57:38.039Z,46.23
2018-11-22T19:00:10.423Z,42.23
2018-11-22T19:02:38.170Z,41.00
2018-11-22T19:05:06.438Z,41.13
2018-11-22T19:07:34.017Z,49.33
2018-11-22T19:10:01.695Z,44.60
2018-11-22T19:12:29.375Z,42.53
2018-11-22T19:14:57.006Z,42.27
2018-11-22T19:17:24.573Z,43.90
2018-11-22T19:19:52.168Z,44.15
2018-11-22T19:22:19.714Z,46.85
2018-11-22T19:24:47.371Z,45.88
2018-11-22T19:27:15.496Z,34.80
2018-11-22T19:29:43.193Z,42.15
2018-11-22T19:32:10.745Z,40.00
2018-11-22T19:34:38.296Z,37.17
2018-11-22T19:37:05.954Z,47.03
2018-11-22T19:39:33.498Z,40.85
2018-11-22T19:42:01.104Z,37.98
2018-11-22T19:44:28.622Z,39.18
2018-11-22T19:46:56.220Z,45.70
2018-11-22T19:49:23.773Z,43.45
2018-11-22T19:51:51.460Z,41.70
2018-11-22T19:54:19.163Z,48.42
2018-11-22T19:56:46.770Z,44.95
2018-11-22T19:59:14.290Z,40.03
2018-11-22T20:01:42.016Z,41.20
2018-11-22T20:04:09.654Z,40.67
2018-11-22T20:06:37.274Z,46.60
2018-11-22T20:09:07.211Z,43.52
2018-11-22T20:11:34.929Z,41.68
2018-11-22T20:14:02.978Z,45.73
2018-11-22T20:16:30.485Z,41.60
2018-11-22T20:18:58.152Z,45.45
2018-11-22T20:21:25.749Z,46.37
2018-11-22T20:23:53.364Z,48.52
2018-11-22T20:26:20.905Z,43.28
2018-11-22T20:28:48.479Z,49.30
2018-11-22T20:31:16.110Z,48.70
2018-11-22T20:33:44.212Z,51.13
2018-11-22T20:36:11.919Z,49.80
2018-11-22T20:38:39.522Z,53.80
2018-11-22T20:41:07.161Z,55.23
2018-11-22T20:43:34.959Z,49.25
2018-11-22T20:46:02.520Z,47.48
2018-11-22T20:48:30.063Z,52.10
2018-11-22T20:50:57.619Z,48.50
2018-11-22T20:53:25.163Z,49.10
2018-11-22T20:55:52.936Z,42.83
2018-11-22T20:58:20.452Z,48.95
2018-11-22T21:00:48.006Z,45.35
2018-11-22T21:03:15.630Z,55.52
2018-11-22T21:05:43.260Z,47.62
2018-11-22T21:08:10.760Z,45.30
2018-11-22T21:10:38.412Z,38.35
2018-11-22T21:13:06.071Z,44.10
2018-11-22T21:15:34.487Z,48.20
2018-11-22T21:18:03.469Z,39.63
2018-11-22T21:20:32.647Z,44.20
2018-11-22T21:23:00.131Z,40.80
2018-11-22T21:25:27.778Z,42.60
2018-11-22T21:27:55.391Z,38.55
2018-11-22T21:30:28.070Z,44.40
2018-11-22T21:32:56.410Z,39.85
2018-11-22T21:35:23.921Z,42.70
2018-11-22T21:37:52.854Z,41.05
2018-11-22T21:40:21.015Z,43.50
2018-11-22T21:42:48.612Z,39.60
2018-11-22T21:45:17.501Z,40.15
2018-11-22T21:47:45.133Z,35.30
2018-11-22T21:50:13.847Z,41.40
2018-11-22T21:52:41.416Z,35.65
2018-11-22T21:55:11.778Z,33.95
2018-11-22T21:57:40.267Z,33.42
2018-11-22T22:00:12.115Z,32.70
2018-11-22T22:02:39.758Z,35.50
2018-11-22T22:05:07.445Z,30.70
2018-11-22T22:07:35.048Z,27.77
2018-11-22T22:10:02.682Z,33.00
2018-11-22T22:12:30.290Z,28.50
2018-11-22T22:14:57.937Z,34.13
2018-11-22T22:17:25.446Z,30.88
2018-11-22T22:19:53.048Z,32.03
2018-11-22T22:22:20.562Z,32.70
2018-11-22T22:24:48.133Z,37.67
2018-11-22T22:27:15.654Z,42.08
2018-11-22T22:29:43.222Z,32.15
2018-11-22T22:32:10.784Z,34.95
2018-11-22T22:34:38.347Z,38.98
2018-11-22T22:37:06.027Z,35.15
2018-11-22T22:39:33.835Z,33.08
2018-11-22T22:42:01.569Z,37.60
2018-11-22T22:44:29.136Z,31.33
2018-11-22T22:46:56.687Z,33.02
2018-11-22T22:49:24.264Z,30.02
2018-11-22T22:51:51.775Z,34.65
2018-11-22T22:54:19.532Z,37.10
2018-11-22T22:56:47.147Z,36.13
2018-11-22T22:59:14.706Z,32.95
2018-11-22T23:01:42.330Z,28.70
2018-11-22T23:04:09.918Z,39.13
2018-11-22T23:06:37.627Z,37.95
2018-11-22T23:09:08.659Z,35.17
2018-11-22T23:11:36.439Z,33.98
2018-11-22T23:14:04.473Z,38.20
2018-11-22T23:16:32.068Z,35.50
2018-11-22T23:18:59.630Z,34.33
2018-11-22T23:21:27.195Z,35.25
2018-11-22T23:23:54.717Z,33.23
2018-11-22T23:26:22.336Z,34.33
2018-11-22T23:28:49.948Z,38.58
2018-11-22T23:31:17.506Z,35.52
2018-11-22T23:33:45.127Z,34.92
2018-11-22T23:36:12.618Z,38.90
2018-11-22T23:38:40.191Z,38.83
2018-11-22T23:41:07.734Z,31.80
2018-11-22T23:43:35.303Z,35.48
2018-11-22T23:46:02.817Z,36.45
2018-11-22T23:48:30.426Z,38.88
2018-11-22T23:50:57.904Z,32.88
2018-11-22T23:53:25.478Z,33.25
2018-11-22T23:55:52.974Z,35.85
2018-11-22T23:58:20.584Z,37.13
